createdAt,value
2023-05-14T00:00:44.789Z,25.40
2023-05-14T00:03:11.704Z,24.83
2023-05-14T00:05:38.354Z,28.00
2023-05-14T00:08:05.029Z,23.65
2023-05-14T00:10:31.703Z,27.90
2023-05-14T00:12:58.096Z,25.20
2023-05-14T00:15:24.668Z,23.77
2023-05-14T00:17:51.152Z,28.00
2023-05-14T00:20:17.610Z,27.38
2023-05-14T00:22:44.239Z,25.83
2023-05-14T00:25:10.896Z,25.75
2023-05-14T00:27:39.845Z,29.10
2023-05-14T00:30:06.947Z,24.77
2023-05-14T00:32:33.498Z,26.85
2023-05-14T00:34:59.994Z,28.30
2023-05-14T00:37:26.455Z,23.88
2023-05-14T00:39:52.898Z,28.98
2023-05-14T00:42:19.354Z,24.10
2023-05-14T00:44:45.758Z,31.20
2023-05-14T00:47:12.358Z,26.25
2023-05-14T00:49:40.778Z,27.00
2023-05-14T00:52:07.622Z,26.65
2023-05-14T00:54:35.317Z,23.17
2023-05-14T00:57:02.107Z,26.13
2023-05-14T00:59:28.668Z,28.38
2023-05-14T01:01:55.149Z,29.70
2023-05-14T01:04:21.614Z,28.73
2023-05-14T01:07:07.744Z,28.10
2023-05-14T01:09:45.552Z,22.42
2023-05-14T01:12:44.153Z,22.75
2023-05-14T01:15:22.194Z,28.02
2023-05-14T01:17:54.006Z,30.65
2023-05-14T01:20:20.927Z,25.50
2023-05-14T01:22:47.356Z,27.05
2023-05-14T01:25:13.723Z,25.95
2023-05-14T01:27:45.571Z,30.02
2023-05-14T01:30:25.229Z,27.02
2023-05-14T01:32:54.814Z,28.27
2023-05-14T01:35:24.171Z,24.75
2023-05-14T01:37:51.332Z,31.63
2023-05-14T01:40:17.711Z,24.25
2023-05-14T01:42:44.543Z,30.15
2023-05-14T01:45:11.113Z,26.95
2023-05-14T01:47:37.614Z,25.42
2023-05-14T01:50:04.209Z,29.20
2023-05-14T01:52:30.629Z,24.65
2023-05-14T01:54:58.326Z,24.55
2023-05-14T01:57:24.709Z,24.75
2023-05-14T01:59:51.131Z,27.10
2023-05-14T02:02:17.530Z,29.33
2023-05-14T02:04:43.996Z,27.88
2023-05-14T02:07:10.369Z,26.15
2023-05-14T02:09:36.741Z,28.42
2023-05-14T02:12:03.145Z,28.92
2023-05-14T02:14:29.609Z,28.88
2023-05-14T02:16:56.205Z,24.70
2023-05-14T02:19:22.634Z,31.42
2023-05-14T02:21:49.082Z,43.38
2023-05-14T02:24:15.560Z,26.05
2023-05-14T02:26:42.334Z,24.77
2023-05-14T02:29:08.858Z,27.52
2023-05-14T02:31:35.464Z,25.15
2023-05-14T02:34:02.788Z,28.75
2023-05-14T02:36:29.235Z,29.33
2023-05-14T02:38:55.629Z,26.13
2023-05-14T02:41:22.043Z,25.98
2023-05-14T02:43:48.405Z,27.15
2023-05-14T02:46:14.881Z,24.20
2023-05-14T02:48:41.317Z,25.90
2023-05-14T02:51:07.963Z,38.33
2023-05-14T02:53:34.400Z,21.27
2023-05-14T02:56:00.854Z,22.33
2023-05-14T02:58:28.279Z,20.48
2023-05-14T03:00:54.989Z,23.27
2023-05-14T03:03:21.784Z,21.35
2023-05-14T03:05:48.625Z,26.20
2023-05-14T03:08:15.061Z,25.95
2023-05-14T03:10:41.478Z,22.35
2023-05-14T03:13:07.941Z,18.98
2023-05-14T03:15:34.512Z,24.15
2023-05-14T03:18:00.915Z,20.35
2023-05-14T03:20:27.318Z,22.27
2023-05-14T03:22:54.477Z,23.33
2023-05-14T03:25:20.837Z,22.63
2023-05-14T03:27:47.317Z,27.90
2023-05-14T03:30:13.813Z,23.10
2023-05-14T03:32:40.893Z,25.45
2023-05-14T03:35:07.925Z,24.67
2023-05-14T03:37:34.296Z,23.45
2023-05-14T03:40:00.782Z,27.08
2023-05-14T03:42:27.169Z,22.55
2023-05-14T03:44:53.676Z,26.08
2023-05-14T03:47:20.174Z,21.45
2023-05-14T03:49:46.550Z,27.85
2023-05-14T03:52:12.985Z,23.05
2023-05-14T03:54:41.174Z,25.33
2023-05-14T03:57:07.577Z,25.52
2023-05-14T03:59:33.937Z,22.65
2023-05-14T04:02:00.400Z,23.25
2023-05-14T04:04:26.967Z,26.52
2023-05-14T04:06:53.417Z,24.23
2023-05-14T04:09:19.785Z,28.00
2023-05-14T04:11:46.205Z,24.50
2023-05-14T04:14:12.840Z,23.33
2023-05-14T04:16:39.330Z,24.35
2023-05-14T04:19:05.999Z,25.15
2023-05-14T04:21:32.522Z,22.10
2023-05-14T04:23:58.915Z,27.83
2023-05-14T04:26:25.401Z,25.75
2023-05-14T04:28:52.114Z,23.50
2023-05-14T04:31:18.533Z,23.00
2023-05-14T04:33:44.977Z,25.92
2023-05-14T04:36:11.448Z,24.80
2023-05-14T04:38:37.872Z,24.20
2023-05-14T04:41:04.373Z,26.10
2023-05-14T04:43:30.798Z,28.13
2023-05-14T04:45:57.207Z,23.30
2023-05-14T04:48:23.638Z,28.35
2023-05-14T04:50:50.025Z,28.40
2023-05-14T04:53:16.392Z,29.15
2023-05-14T04:55:42.786Z,29.50
2023-05-14T04:58:09.160Z,31.30
2023-05-14T05:00:35.607Z,28.88
2023-05-14T05:03:02.032Z,28.13
2023-05-14T05:05:28.646Z,31.48
2023-05-14T05:07:55.440Z,27.50
2023-05-14T05:10:22.105Z,30.55
2023-05-14T05:12:48.627Z,25.63
2023-05-14T05:15:15.052Z,30.02
2023-05-14T05:17:41.441Z,33.28
2023-05-14T05:20:09.794Z,28.40
2023-05-14T05:22:36.691Z,31.20
2023-05-14T05:25:06.227Z,29.30
2023-05-14T05:27:35.461Z,29.58
2023-05-14T05:30:02.335Z,27.55
2023-05-14T05:32:28.842Z,29.88
2023-05-14T05:34:55.384Z,25.73
2023-05-14T05:37:21.763Z,23.35
2023-05-14T05:39:48.297Z,26.80
2023-05-14T05:42:14.854Z,26.75
2023-05-14T05:44:41.252Z,31.60
2023-05-14T05:47:07.663Z,25.95
2023-05-14T05:49:34.077Z,27.05
2023-05-14T05:52:00.502Z,22.00
2023-05-14T05:54:27.131Z,22.55
2023-05-14T05:56:53.525Z,28.60
2023-05-14T05:59:20.014Z,25.80
2023-05-14T06:01:46.429Z,25.17
2023-05-14T06:04:12.857Z,28.95
2023-05-14T06:06:39.211Z,21.65
2023-05-14T06:09:07.028Z,23.98
2023-05-14T06:11:33.623Z,23.90
2023-05-14T06:14:00.143Z,25.10
2023-05-14T06:16:26.594Z,25.52
2023-05-14T06:18:54.359Z,24.95
2023-05-14T06:21:20.768Z,21.73
2023-05-14T06:23:47.229Z,24.63
2023-05-14T06:26:13.641Z,23.75
2023-05-14T06:28:40.005Z,26.45
2023-05-14T06:31:06.415Z,29.85
2023-05-14T06:33:32.836Z,21.98
2023-05-14T06:36:00.839Z,25.50
2023-05-14T06:38:27.249Z,24.55
2023-05-14T06:40:53.639Z,27.02
2023-05-14T06:43:20.785Z,27.20
2023-05-14T06:45:51.071Z,22.05
2023-05-14T06:48:21.215Z,19.30
2023-05-14T06:50:48.711Z,20.00
2023-05-14T06:53:15.332Z,25.20
2023-05-14T06:55:41.917Z,22.80
2023-05-14T06:58:08.644Z,21.65
2023-05-14T07:00:35.223Z,20.85
2023-05-14T07:03:01.626Z,18.92
2023-05-14T07:05:28.049Z,23.13
2023-05-14T07:07:54.464Z,21.50
2023-05-14T07:10:21.061Z,21.15
2023-05-14T07:12:47.849Z,22.13
2023-05-14T07:15:14.300Z,22.50
2023-05-14T07:17:40.967Z,22.20
2023-05-14T07:20:07.903Z,23.20
2023-05-14T07:22:34.356Z,21.00
2023-05-14T07:25:00.798Z,25.67
2023-05-14T07:27:27.181Z,21.67
2023-05-14T07:29:53.543Z,24.83
2023-05-14T07:32:20.094Z,24.63
2023-05-14T07:34:46.545Z,20.83
2023-05-14T07:37:12.968Z,26.73
2023-05-14T07:39:41.542Z,23.75
2023-05-14T07:42:07.891Z,22.00
2023-05-14T07:44:34.242Z,22.85
2023-05-14T07:47:00.758Z,19.60
2023-05-14T07:49:27.231Z,20.77
2023-05-14T07:51:53.603Z,19.38
2023-05-14T07:54:20.006Z,20.88
2023-05-14T07:56:46.428Z,23.13
2023-05-14T07:59:12.856Z,18.90
2023-05-14T08:01:39.578Z,19.58
2023-05-14T08:04:06.165Z,19.52
2023-05-14T08:06:32.710Z,21.60
2023-05-14T08:08:59.206Z,26.42
2023-05-14T08:11:26.216Z,24.38
2023-05-14T08:13:52.799Z,16.67
2023-05-14T08:16:19.246Z,16.23
2023-05-14T08:18:45.738Z,20.45
2023-05-14T08:21:12.180Z,17.45
2023-05-14T08:23:38.594Z,16.63
2023-05-14T08:26:05.050Z,16.10
2023-05-14T08:28:31.424Z,19.60
2023-05-14T08:30:57.905Z,16.00
2023-05-14T08:33:24.415Z,18.40
2023-05-14T08:35:52.975Z,17.65
2023-05-14T08:38:19.387Z,17.95
2023-05-14T08:40:52.637Z,16.67
2023-05-14T08:43:20.679Z,20.60
2023-05-14T08:45:49.576Z,21.52
2023-05-14T08:48:18.060Z,15.65
2023-05-14T08:50:44.566Z,20.83
2023-05-14T08:53:10.967Z,19.90
2023-05-14T08:55:37.704Z,15.57
2023-05-14T08:58:04.217Z,16.33
2023-05-14T09:00:30.821Z,20.42
2023-05-14T09:02:57.594Z,18.42
2023-05-14T09:05:24.429Z,12.80
2023-05-14T09:07:50.856Z,17.65
2023-05-14T09:10:17.573Z,17.45
2023-05-14T09:12:44.043Z,20.20
2023-05-14T09:15:10.963Z,17.05
2023-05-14T09:17:37.548Z,14.40
2023-05-14T09:20:04.453Z,13.75
2023-05-14T09:22:33.439Z,18.05
2023-05-14T09:25:11.926Z,17.50
2023-05-14T09:27:38.708Z,13.98
2023-05-14T09:30:10.620Z,19.83
2023-05-14T09:32:41.249Z,15.25
2023-05-14T09:35:17.830Z,16.23
2023-05-14T09:37:46.358Z,17.23
2023-05-14T09:40:13.881Z,11.63
2023-05-14T09:42:40.529Z,15.88
2023-05-14T09:45:08.582Z,12.63
2023-05-14T09:47:35.802Z,14.05
2023-05-14T09:50:02.858Z,16.65
2023-05-14T09:52:29.396Z,13.40
2023-05-14T09:54:55.942Z,14.23
2023-05-14T09:57:22.446Z,14.48
2023-05-14T09:59:48.913Z,15.88
2023-05-14T10:02:29.340Z,15.75
2023-05-14T10:04:58.791Z,11.80
2023-05-14T10:07:29.593Z,14.02
2023-05-14T10:09:59.982Z,16.42
2023-05-14T10:12:29.689Z,14.13
2023-05-14T10:14:57.161Z,14.10
2023-05-14T10:17:25.094Z,17.30
2023-05-14T10:19:53.984Z,21.23
2023-05-14T10:22:23.373Z,12.18
2023-05-14T10:24:52.478Z,16.35
2023-05-14T10:27:21.449Z,16.33
2023-05-14T10:29:55.411Z,17.65
2023-05-14T10:32:25.070Z,17.90
2023-05-14T10:34:52.488Z,12.82
2023-05-14T10:37:21.532Z,16.25
2023-05-14T10:39:51.668Z,14.25
2023-05-14T10:42:19.029Z,18.23
2023-05-14T10:44:51.406Z,16.58
2023-05-14T10:47:18.417Z,17.30
2023-05-14T10:49:45.911Z,16.95
2023-05-14T10:52:12.448Z,14.70
2023-05-14T10:54:38.959Z,15.63
2023-05-14T10:57:11.434Z,17.10
2023-05-14T10:59:41.700Z,14.50
2023-05-14T11:02:19.342Z,18.33
2023-05-14T11:05:05.009Z,16.02
2023-05-14T11:07:33.385Z,17.20
2023-05-14T11:10:05.030Z,17.27
2023-05-14T11:14:59.158Z,19.38
2023-05-14T11:17:27.077Z,19.55
2023-05-14T11:19:53.889Z,28.70
2023-05-14T11:22:20.829Z,19.88
2023-05-14T11:24:47.320Z,18.02
2023-05-14T11:27:13.807Z,19.65
2023-05-14T11:29:43.785Z,18.38
2023-05-14T11:32:10.420Z,20.17
2023-05-14T11:34:37.361Z,19.45
2023-05-14T11:37:05.106Z,27.95
2023-05-14T11:39:32.938Z,16.90
2023-05-14T11:42:02.354Z,18.88
2023-05-14T11:44:28.754Z,14.05
2023-05-14T11:46:58.982Z,20.33
2023-05-14T11:49:25.794Z,17.10
2023-05-14T11:52:02.114Z,15.68
2023-05-14T11:54:29.421Z,15.35
2023-05-14T11:56:56.654Z,17.70
2023-05-14T11:59:27.688Z,18.52
2023-05-14T12:01:55.194Z,19.65
2023-05-14T12:04:22.821Z,17.15
2023-05-14T12:06:50.225Z,24.38
2023-05-14T12:09:17.980Z,18.67
2023-05-14T12:11:46.378Z,16.67
2023-05-14T12:14:20.830Z,20.42
2023-05-14T12:16:47.916Z,17.83
2023-05-14T12:19:15.507Z,18.63
2023-05-14T12:21:46.870Z,19.67
2023-05-14T12:24:15.595Z,19.20
2023-05-14T12:26:46.875Z,17.13
2023-05-14T12:29:14.622Z,16.45
2023-05-14T12:31:48.563Z,18.23
2023-05-14T12:34:15.749Z,16.02
2023-05-14T12:36:42.767Z,15.02
2023-05-14T12:39:09.980Z,19.27
2023-05-14T12:41:36.905Z,12.93
2023-05-14T12:44:06.308Z,18.38
2023-05-14T12:46:34.018Z,15.20
2023-05-14T12:49:00.566Z,17.67
2023-05-14T12:51:27.002Z,19.55
2023-05-14T12:53:54.202Z,16.25
2023-05-14T12:56:21.908Z,18.08
2023-05-14T12:58:48.309Z,17.88
2023-05-14T13:01:14.739Z,14.95
2023-05-14T13:03:41.549Z,17.67
2023-05-14T13:06:07.994Z,16.50
2023-05-14T13:08:35.129Z,15.82
2023-05-14T13:11:01.490Z,19.58
2023-05-14T13:13:27.911Z,20.20
2023-05-14T13:15:54.271Z,18.23
2023-05-14T13:18:20.843Z,20.60
2023-05-14T13:20:47.589Z,22.13
2023-05-14T13:23:14.538Z,14.88
2023-05-14T13:25:41.002Z,17.67
2023-05-14T13:28:08.278Z,19.88
2023-05-14T13:30:34.679Z,19.92
2023-05-14T13:33:01.146Z,20.70
2023-05-14T13:35:27.601Z,16.08
2023-05-14T13:37:53.997Z,16.77
2023-05-14T13:40:20.385Z,16.88
2023-05-14T13:42:46.749Z,21.02
2023-05-14T13:45:13.146Z,18.85
2023-05-14T13:47:40.283Z,16.17
2023-05-14T13:50:07.274Z,18.30
2023-05-14T13:52:33.649Z,13.45
2023-05-14T13:55:00.046Z,15.20
2023-05-14T13:57:26.918Z,15.80
2023-05-14T13:59:53.336Z,14.98
2023-05-14T14:02:19.745Z,19.15
2023-05-14T14:04:46.158Z,14.77
2023-05-14T14:07:12.657Z,17.65
2023-05-14T14:09:39.105Z,19.20
2023-05-14T14:12:06.246Z,15.13
2023-05-14T14:14:32.724Z,15.02
2023-05-14T14:16:59.136Z,14.95
2023-05-14T14:19:25.536Z,19.30
2023-05-14T14:21:51.982Z,17.02
2023-05-14T14:24:18.368Z,17.20
2023-05-14T14:26:44.789Z,19.65
2023-05-14T14:29:11.242Z,19.65
2023-05-14T14:31:37.796Z,16.25
2023-05-14T14:34:04.178Z,14.95
2023-05-14T14:36:31.650Z,15.88
2023-05-14T14:38:58.134Z,20.20
2023-05-14T14:41:24.663Z,14.40
2023-05-14T14:43:51.077Z,11.65
2023-05-14T14:46:17.562Z,16.30
2023-05-14T14:48:43.983Z,17.13
2023-05-14T14:51:10.400Z,15.98
2023-05-14T14:53:37.292Z,14.15
2023-05-14T14:56:04.093Z,13.63
2023-05-14T14:58:31.102Z,13.57
2023-05-14T15:00:58.428Z,16.92
2023-05-14T15:03:25.661Z,13.88
2023-05-14T15:05:53.379Z,13.90
2023-05-14T15:08:20.818Z,16.60
2023-05-14T15:10:47.272Z,14.38
2023-05-14T15:13:13.703Z,15.15
2023-05-14T15:15:40.150Z,16.10
2023-05-14T15:18:06.585Z,15.07
2023-05-14T15:20:33.044Z,19.50
2023-05-14T15:22:59.573Z,17.63
2023-05-14T15:25:26.599Z,12.23
2023-05-14T15:27:53.104Z,14.75
2023-05-14T15:30:19.635Z,18.15
2023-05-14T15:32:46.479Z,16.13
2023-05-14T15:35:13.101Z,14.85
2023-05-14T15:37:41.652Z,14.05
2023-05-14T15:40:09.133Z,16.58
2023-05-14T15:42:41.977Z,15.63
2023-05-14T15:45:10.235Z,15.77
2023-05-14T15:47:36.681Z,13.68
2023-05-14T15:50:03.808Z,22.40
2023-05-14T15:52:30.342Z,13.13
2023-05-14T15:54:57.406Z,18.23
2023-05-14T15:57:24.065Z,14.07
2023-05-14T15:59:51.383Z,19.40
2023-05-14T16:02:17.874Z,17.77
2023-05-14T16:04:45.140Z,19.80
2023-05-14T16:07:12.098Z,19.45
2023-05-14T16:09:38.990Z,16.98
2023-05-14T16:12:06.625Z,17.10
2023-05-14T16:14:34.461Z,19.08
2023-05-14T16:17:01.983Z,16.15
2023-05-14T16:19:28.603Z,21.42
2023-05-14T16:21:55.057Z,17.35
2023-05-14T16:24:21.575Z,18.00
2023-05-14T16:26:47.993Z,15.35
2023-05-14T16:29:14.438Z,17.80
2023-05-14T16:31:40.858Z,17.17
2023-05-14T16:34:07.262Z,15.93
2023-05-14T16:36:33.646Z,18.92
2023-05-14T16:39:07.361Z,16.35
2023-05-14T16:41:35.303Z,17.23
2023-05-14T16:44:01.765Z,14.77
2023-05-14T16:46:29.369Z,16.23
2023-05-14T16:48:56.227Z,14.63
2023-05-14T16:51:22.698Z,18.05
2023-05-14T16:53:49.134Z,17.60
2023-05-14T16:56:15.586Z,18.50
2023-05-14T16:58:42.011Z,17.77
2023-05-14T17:01:09.916Z,19.55
2023-05-14T17:03:36.823Z,27.15
2023-05-14T17:06:04.550Z,20.48
2023-05-14T17:08:33.495Z,16.83
2023-05-14T17:11:00.175Z,19.55
2023-05-14T17:13:26.658Z,17.08
2023-05-14T17:15:53.153Z,16.02
2023-05-14T17:18:19.674Z,15.27
2023-05-14T17:20:46.261Z,15.82
2023-05-14T17:23:12.846Z,14.35
2023-05-14T17:25:39.264Z,15.30
2023-05-14T17:28:05.945Z,12.27
2023-05-14T17:30:32.405Z,13.77
2023-05-14T17:32:58.960Z,15.05
2023-05-14T17:35:25.950Z,16.02
2023-05-14T17:37:52.521Z,13.15
2023-05-14T17:40:18.906Z,14.07
2023-05-14T17:42:45.477Z,18.50
2023-05-14T17:45:13.187Z,16.83
2023-05-14T17:47:39.808Z,13.80
2023-05-14T17:50:07.145Z,14.63
2023-05-14T17:52:33.536Z,16.67
2023-05-14T17:54:59.946Z,17.42
2023-05-14T17:57:27.660Z,13.55
2023-05-14T17:59:54.318Z,18.13
2023-05-14T18:02:20.768Z,19.20
2023-05-14T18:04:47.244Z,15.32
2023-05-14T18:07:13.780Z,19.27
2023-05-14T18:09:40.514Z,16.23
2023-05-14T18:12:07.425Z,14.95
2023-05-14T18:14:33.831Z,16.10
2023-05-14T18:17:00.272Z,20.00
2023-05-14T18:19:27.010Z,18.42
2023-05-14T18:21:55.441Z,21.27
2023-05-14T18:24:22.334Z,22.55
2023-05-14T18:26:48.815Z,16.92
2023-05-14T18:29:15.298Z,18.30
2023-05-14T18:31:41.708Z,17.63
2023-05-14T18:34:08.200Z,14.70
2023-05-14T18:36:34.680Z,14.00
2023-05-14T18:39:01.064Z,14.35
2023-05-14T18:41:27.471Z,20.67
2023-05-14T18:43:53.816Z,14.43
2023-05-14T18:46:20.257Z,18.70
2023-05-14T18:48:46.685Z,14.57
2023-05-14T18:51:13.068Z,18.02
2023-05-14T18:53:39.460Z,17.55
2023-05-14T18:56:05.914Z,22.30
2023-05-14T18:58:33.679Z,16.30
2023-05-14T19:01:00.219Z,15.40
2023-05-14T19:03:26.767Z,14.45
2023-05-14T19:05:53.754Z,16.00
2023-05-14T19:08:20.399Z,15.50
2023-05-14T19:10:47.094Z,11.82
2023-05-14T19:13:13.515Z,12.20
2023-05-14T19:15:39.948Z,18.80
2023-05-14T19:18:06.716Z,12.27
2023-05-14T19:20:33.112Z,15.50
2023-05-14T19:22:59.458Z,17.05
2023-05-14T19:25:25.985Z,12.35
2023-05-14T19:27:55.192Z,12.10
2023-05-14T19:30:23.278Z,15.75
2023-05-14T19:32:49.843Z,13.15
2023-05-14T19:35:16.568Z,13.60
2023-05-14T19:37:42.996Z,13.15
2023-05-14T19:40:09.664Z,11.35
2023-05-14T19:42:36.097Z,10.50
2023-05-14T19:45:03.690Z,16.40
2023-05-14T19:47:30.154Z,11.98
2023-05-14T19:49:56.605Z,16.02
2023-05-14T19:52:23.005Z,12.93
2023-05-14T19:54:49.441Z,11.50
2023-05-14T19:57:15.830Z,13.15
2023-05-14T19:59:42.304Z,11.60
2023-05-14T20:02:09.089Z,20.45
2023-05-14T20:04:35.591Z,12.45
2023-05-14T20:07:01.989Z,14.02
2023-05-14T20:09:28.422Z,19.15
2023-05-14T20:11:54.839Z,13.40
2023-05-14T20:14:21.373Z,16.73
2023-05-14T20:16:48.864Z,13.63
2023-05-14T20:19:16.292Z,14.10
2023-05-14T20:21:42.800Z,13.63
2023-05-14T20:24:09.161Z,17.13
2023-05-14T20:26:35.751Z,15.30
2023-05-14T20:29:02.114Z,12.23
2023-05-14T20:31:28.675Z,13.65
2023-05-14T20:33:55.335Z,15.23
2023-05-14T20:36:22.187Z,12.35
2023-05-14T20:38:48.598Z,16.38
2023-05-14T20:41:15.077Z,13.75
2023-05-14T20:43:41.446Z,20.83
2023-05-14T20:46:07.913Z,13.60
2023-05-14T20:48:34.418Z,15.05
2023-05-14T20:51:01.621Z,15.70
2023-05-14T20:53:28.674Z,15.48
2023-05-14T20:55:56.026Z,16.02
2023-05-14T20:58:22.475Z,26.38
2023-05-14T21:00:48.876Z,16.55
2023-05-14T21:03:15.427Z,17.80
2023-05-14T21:05:43.530Z,19.75
2023-05-14T21:08:10.026Z,18.73
2023-05-14T21:10:36.408Z,20.75
2023-05-14T21:13:02.852Z,17.50
2023-05-14T21:15:30.623Z,19.85
2023-05-14T21:17:57.084Z,18.15
2023-05-14T21:20:23.480Z,16.60
2023-05-14T21:22:49.840Z,20.00
2023-05-14T21:25:16.256Z,16.27
2023-05-14T21:27:42.951Z,21.60
2023-05-14T21:30:09.891Z,18.27
2023-05-14T21:32:36.327Z,18.75
2023-05-14T21:35:03.058Z,24.42
2023-05-14T21:37:29.450Z,17.13
2023-05-14T21:39:55.847Z,15.98
2023-05-14T21:42:22.255Z,19.38
2023-05-14T21:44:48.626Z,18.33
2023-05-14T21:47:16.004Z,17.10
2023-05-14T21:49:43.053Z,18.80
2023-05-14T21:52:09.513Z,16.75
2023-05-14T21:54:35.921Z,21.85
2023-05-14T21:57:02.330Z,15.57
2023-05-14T21:59:28.695Z,20.15
2023-05-14T22:02:06.759Z,17.92
2023-05-14T22:04:34.256Z,20.45
2023-05-14T22:07:01.420Z,14.90
2023-05-14T22:09:27.787Z,18.58
2023-05-14T22:11:54.159Z,17.88
2023-05-14T22:14:20.684Z,19.15
2023-05-14T22:16:47.292Z,21.00
2023-05-14T22:19:16.415Z,22.38
2023-05-14T22:21:42.897Z,21.65
2023-05-14T22:24:09.257Z,21.60
2023-05-14T22:26:35.635Z,27.30
2023-05-14T22:29:02.002Z,22.85
2023-05-14T22:31:28.414Z,19.52
2023-05-14T22:33:54.860Z,23.05
2023-05-14T22:36:21.294Z,25.23
2023-05-14T22:38:47.860Z,23.48
2023-05-14T22:41:14.347Z,27.95
2023-05-14T22:43:40.837Z,20.38
2023-05-14T22:46:07.322Z,18.27
2023-05-14T22:48:33.753Z,20.83
2023-05-14T22:51:00.239Z,21.60
2023-05-14T22:53:27.507Z,25.25
2023-05-14T22:55:53.938Z,20.45
2023-05-14T22:58:20.345Z,19.55
2023-05-14T23:00:46.965Z,22.17
2023-05-14T23:03:13.347Z,22.38
2023-05-14T23:05:39.830Z,23.95
2023-05-14T23:08:06.443Z,21.83
2023-05-14T23:10:33.664Z,22.27
2023-05-14T23:13:00.044Z,18.90
2023-05-14T23:15:27.122Z,17.98
2023-05-14T23:17:53.882Z,24.95
2023-05-14T23:20:20.309Z,23.77
2023-05-14T23:22:46.757Z,21.52
2023-05-14T23:25:13.286Z,24.45
2023-05-14T23:27:39.672Z,24.25
2023-05-14T23:30:06.839Z,29.52
2023-05-14T23:32:33.270Z,28.13
2023-05-14T23:34:59.755Z,25.55
2023-05-14T23:37:26.234Z,23.63
2023-05-14T23:39:53.162Z,28.65
2023-05-14T23:42:20.130Z,22.70
2023-05-14T23:44:46.578Z,20.55
2023-05-14T23:47:13.084Z,20.63
2023-05-14T23:49:40.672Z,28.20
2023-05-14T23:52:07.301Z,26.10
2023-05-14T23:54:33.719Z,23.48
2023-05-14T23:57:00.165Z,22.58
2023-05-14T23:59:26.666Z,23.35
